createdAt,value
2019-02-06T00:02:06.754Z,100272.14
2019-02-06T00:04:36.228Z,100273.88
2019-02-06T00:07:06.990Z,100263.45
2019-02-06T00:09:36.483Z,100269.59
2019-02-06T00:12:06.913Z,100273.05
2019-02-06T00:14:37.483Z,100272.66
2019-02-06T00:17:07.361Z,100278.80
2019-02-06T00:19:37.869Z,100274.91
2019-02-06T00:22:09.256Z,100275.86
2019-02-06T00:24:38.737Z,100279.42
2019-02-06T00:27:08.694Z,100271.73
2019-02-06T00:29:38.551Z,100271.45
2019-02-06T00:32:07.994Z,100271.48
2019-02-06T00:34:37.191Z,100262.77
2019-02-06T00:37:07.181Z,100262.34
2019-02-06T00:39:37.470Z,100261.44
2019-02-06T00:42:07.659Z,100263.60
2019-02-06T00:44:37.922Z,100265.38
2019-02-06T00:47:07.923Z,100276.20
2019-02-06T00:49:37.662Z,100280.09
2019-02-06T00:52:06.883Z,100270.94
2019-02-06T00:54:36.869Z,100277.87
2019-02-06T00:57:06.332Z,100283.14
2019-02-06T00:59:38.796Z,100274.03
2019-02-06T01:02:08.030Z,100283.16
2019-02-06T01:04:37.909Z,100275.90
2019-02-06T01:07:07.131Z,100273.70
2019-02-06T01:09:36.588Z,100281.11
2019-02-06T01:12:08.900Z,100284.17
2019-02-06T01:14:38.975Z,100283.67
2019-02-06T01:17:10.417Z,100284.94
2019-02-06T01:19:39.599Z,100276.27
2019-02-06T01:22:09.575Z,100282.33
2019-02-06T01:24:38.777Z,100277.99
2019-02-06T01:27:07.987Z,100282.80
2019-02-06T01:29:37.154Z,100278.48
2019-02-06T01:32:07.134Z,100273.75
2019-02-06T01:34:36.578Z,100272.91
2019-02-06T01:37:06.315Z,100267.71
2019-02-06T01:39:35.503Z,100266.86
2019-02-06T01:42:05.266Z,100271.20
2019-02-06T01:44:34.528Z,100264.66
2019-02-06T01:47:03.718Z,100269.86
2019-02-06T01:49:33.084Z,100269.05
2019-02-06T01:52:02.291Z,100269.03
2019-02-06T01:54:32.061Z,100264.69
2019-02-06T01:57:01.503Z,100261.67
2019-02-06T01:59:30.971Z,100263.83
2019-02-06T02:02:00.397Z,100257.73
2019-02-06T02:04:29.641Z,100256.80
2019-02-06T02:07:00.301Z,100254.63
2019-02-06T02:09:29.484Z,100260.34
2019-02-06T02:11:59.132Z,100262.53
2019-02-06T02:14:28.620Z,100253.06
2019-02-06T02:16:57.785Z,100254.79
2019-02-06T02:19:27.280Z,100252.59
2019-02-06T02:21:57.743Z,100248.66
2019-02-06T02:24:27.630Z,100255.97
2019-02-06T02:26:58.117Z,100250.38
2019-02-06T02:29:27.802Z,100244.34
2019-02-06T02:31:57.363Z,100236.09
2019-02-06T02:34:26.834Z,100236.02
2019-02-06T02:36:56.277Z,100232.11
2019-02-06T02:39:25.501Z,100233.34
2019-02-06T02:41:54.962Z,100232.05
2019-02-06T02:44:24.776Z,100227.69
2019-02-06T02:46:54.392Z,100226.33
2019-02-06T02:49:24.368Z,100217.23
2019-02-06T02:51:53.546Z,100214.17
2019-02-06T02:54:22.760Z,100209.36
2019-02-06T02:56:54.134Z,100210.20
2019-02-06T02:59:25.108Z,100209.00
2019-02-06T03:02:16.775Z,100206.48
2019-02-06T03:04:50.712Z,100208.22
2019-02-06T03:07:20.126Z,100200.97
2019-02-06T03:09:49.332Z,100198.34
2019-02-06T03:12:18.753Z,100196.58
2019-02-06T03:14:47.948Z,100196.56
2019-02-06T03:17:17.429Z,100193.95
2019-02-06T03:19:46.759Z,100193.49
2019-02-06T03:22:16.457Z,100196.52
2019-02-06T03:24:46.524Z,100193.91
2019-02-06T03:27:15.700Z,100191.72
2019-02-06T03:29:45.221Z,100198.22
2019-02-06T03:32:15.213Z,100184.78
2019-02-06T03:34:45.193Z,100189.09
2019-02-06T03:37:15.021Z,100188.25
2019-02-06T03:39:44.605Z,100182.60
2019-02-06T03:42:13.756Z,100186.94
2019-02-06T03:44:43.897Z,100193.51
2019-02-06T03:47:13.812Z,100197.36
2019-02-06T03:49:43.034Z,100199.52
2019-02-06T03:52:12.483Z,100199.98
2019-02-06T03:54:41.734Z,100197.31
2019-02-06T03:57:10.900Z,100194.73
2019-02-06T03:59:40.374Z,100198.70
2019-02-06T04:02:09.563Z,100196.16
2019-02-06T04:04:38.570Z,100196.59
2019-02-06T04:07:08.686Z,100197.85
2019-02-06T04:09:38.119Z,100195.27
2019-02-06T04:12:07.675Z,100190.95
2019-02-06T04:14:37.169Z,100194.81
2019-02-06T04:17:06.728Z,100188.27
2019-02-06T04:19:35.917Z,100190.91
2019-02-06T04:22:07.211Z,100187.86
2019-02-06T04:24:36.724Z,100184.87
2019-02-06T04:27:06.214Z,100186.19
2019-02-06T04:29:36.213Z,100182.64
2019-02-06T04:32:06.417Z,100190.48
2019-02-06T04:34:35.619Z,100187.42
2019-02-06T04:37:07.144Z,100190.00
2019-02-06T04:39:36.331Z,100187.42
2019-02-06T04:42:05.819Z,100183.95
2019-02-06T04:44:37.141Z,100184.77
2019-02-06T04:47:06.681Z,100186.50
2019-02-06T04:49:36.352Z,100180.47
2019-02-06T04:52:06.756Z,100179.97
2019-02-06T04:54:35.995Z,100178.70
2019-02-06T04:57:09.504Z,100179.23
2019-02-06T04:59:38.595Z,100173.56
2019-02-06T05:02:07.813Z,100170.12
2019-02-06T05:04:36.995Z,100167.94
2019-02-06T05:07:18.349Z,100161.88
2019-02-06T05:09:39.778Z,100162.77
2019-02-06T05:12:09.687Z,100162.73
2019-02-06T05:14:38.911Z,100164.05
2019-02-06T05:17:08.843Z,100156.70
2019-02-06T05:19:38.802Z,100161.90
2019-02-06T05:22:08.140Z,100154.54
2019-02-06T05:24:38.709Z,100150.19
2019-02-06T05:27:11.221Z,100153.68
2019-02-06T05:29:40.771Z,100152.86
2019-02-06T05:32:10.928Z,100150.26
2019-02-06T05:34:40.821Z,100151.08
2019-02-06T05:37:10.036Z,100146.77
2019-02-06T05:39:39.496Z,100148.95
2019-02-06T05:42:08.732Z,100149.78
2019-02-06T05:44:38.170Z,100151.55
2019-02-06T05:47:12.640Z,100154.11
2019-02-06T05:49:42.930Z,100153.25
2019-02-06T05:52:14.345Z,100155.81
2019-02-06T05:54:43.823Z,100151.98
2019-02-06T05:57:13.544Z,100159.34
2019-02-06T05:59:42.966Z,100162.33
2019-02-06T06:02:12.447Z,100165.42
2019-02-06T06:04:42.224Z,100169.28
2019-02-06T06:07:11.426Z,100173.63
2019-02-06T06:09:41.475Z,100170.98
2019-02-06T06:12:10.677Z,100166.65
2019-02-06T06:14:39.852Z,100170.55
2019-02-06T06:17:09.918Z,100172.29
2019-02-06T06:19:40.891Z,100171.00
2019-02-06T06:22:10.453Z,100171.48
2019-02-06T06:24:39.623Z,100174.89
2019-02-06T06:27:11.694Z,100168.83
2019-02-06T06:29:41.214Z,100170.16
2019-02-06T06:32:10.413Z,100168.04
2019-02-06T06:34:40.992Z,100163.27
2019-02-06T06:37:11.198Z,100166.68
2019-02-06T06:39:40.812Z,100157.14
2019-02-06T06:42:10.948Z,100161.05
2019-02-06T06:44:40.474Z,100153.67
2019-02-06T06:47:09.893Z,100156.27
2019-02-06T06:49:41.552Z,100157.95
2019-02-06T06:52:10.990Z,100151.50
2019-02-06T06:54:40.496Z,100145.84
2019-02-06T06:57:12.301Z,100147.21
2019-02-06T06:59:42.009Z,100148.52
2019-02-06T07:02:11.151Z,100148.93
2019-02-06T07:04:40.646Z,100154.14
2019-02-06T07:07:10.113Z,100151.53
2019-02-06T07:09:39.356Z,100153.72
2019-02-06T07:12:09.900Z,100162.37
2019-02-06T07:14:39.105Z,100159.80
2019-02-06T07:17:08.288Z,100163.69
2019-02-06T07:19:38.356Z,100167.61
2019-02-06T07:22:07.880Z,100165.91
2019-02-06T07:24:37.343Z,100162.90
2019-02-06T07:27:07.204Z,100164.21
2019-02-06T07:29:36.401Z,100158.95
2019-02-06T07:32:06.057Z,100164.14
2019-02-06T07:34:35.451Z,100167.18
2019-02-06T07:37:05.089Z,100165.94
2019-02-06T07:39:34.571Z,100165.47
2019-02-06T07:42:03.767Z,100172.80
2019-02-06T07:44:33.762Z,100167.61
2019-02-06T07:47:02.948Z,100168.02
2019-02-06T07:49:32.827Z,100176.29
2019-02-06T07:52:04.248Z,100168.04
2019-02-06T07:54:34.538Z,100173.27
2019-02-06T07:57:05.505Z,100171.08
2019-02-06T07:59:34.677Z,100173.30
2019-02-06T08:02:04.182Z,100178.02
2019-02-06T08:04:34.028Z,100178.87
2019-02-06T08:07:03.489Z,100177.98
2019-02-06T08:09:32.711Z,100175.41
2019-02-06T08:12:02.689Z,100169.75
2019-02-06T08:14:32.650Z,100173.67
2019-02-06T08:17:02.664Z,100169.36
2019-02-06T08:19:32.370Z,100178.05
2019-02-06T08:22:01.836Z,100171.56
2019-02-06T08:24:31.899Z,100171.96
2019-02-06T08:27:01.755Z,100175.37
2019-02-06T08:29:34.191Z,100180.17
2019-02-06T08:32:04.333Z,100180.56
2019-02-06T08:34:33.630Z,100177.10
2019-02-06T08:37:02.801Z,100180.13
2019-02-06T08:39:31.993Z,100184.87
2019-02-06T08:42:01.176Z,100179.17
2019-02-06T08:44:30.399Z,100179.62
2019-02-06T08:46:59.863Z,100187.88
2019-02-06T08:49:29.534Z,100186.48
2019-02-06T08:51:58.849Z,100188.16
2019-02-06T08:54:28.022Z,100187.73
2019-02-06T08:56:58.948Z,100186.02
2019-02-06T08:59:28.209Z,100182.55
2019-02-06T09:01:58.079Z,100184.70
2019-02-06T09:04:27.469Z,100185.58
2019-02-06T09:06:59.255Z,100178.06
2019-02-06T09:09:28.867Z,100184.97
2019-02-06T09:12:02.157Z,100184.89
2019-02-06T09:14:32.241Z,100180.06
2019-02-06T09:17:04.682Z,100183.52
2019-02-06T09:19:34.116Z,100178.11
2019-02-06T09:22:03.681Z,100173.89
2019-02-06T09:24:32.926Z,100167.41
2019-02-06T09:27:02.159Z,100165.60
2019-02-06T09:29:31.417Z,100159.06
2019-02-06T09:32:00.647Z,100151.16
2019-02-06T09:34:30.253Z,100153.39
2019-02-06T09:37:00.468Z,100147.25
2019-02-06T09:39:30.742Z,100138.36
2019-02-06T09:42:04.776Z,100141.06
2019-02-06T09:44:35.910Z,100140.98
2019-02-06T09:47:05.763Z,100133.82
2019-02-06T09:49:49.829Z,100140.28
2019-02-06T09:52:18.847Z,100147.13
2019-02-06T09:54:48.023Z,100143.56
2019-02-06T09:57:17.471Z,100147.58
2019-02-06T09:59:46.746Z,100140.98
2019-02-06T10:02:16.123Z,100140.42
2019-02-06T10:04:45.400Z,100133.16
2019-02-06T10:07:14.796Z,100127.00
2019-02-06T10:09:44.592Z,100121.81
2019-02-06T10:12:15.635Z,100120.55
2019-02-06T10:14:45.324Z,100121.36
2019-02-06T10:17:14.549Z,100126.68
2019-02-06T10:19:53.525Z,100116.92
2019-02-06T10:22:23.109Z,100116.86
2019-02-06T10:24:55.090Z,100116.36
2019-02-06T10:27:26.812Z,100110.28
2019-02-06T10:29:57.531Z,100110.48
2019-02-06T10:32:26.740Z,100111.34
2019-02-06T10:34:56.976Z,100110.34
2019-02-06T10:37:29.278Z,100114.87
2019-02-06T10:40:01.918Z,100108.06
2019-02-06T10:42:32.489Z,100106.14
2019-02-06T10:45:03.497Z,100098.78
2019-02-06T10:47:33.122Z,100106.31
2019-02-06T10:50:03.508Z,100097.69
2019-02-06T10:52:33.675Z,100093.01
2019-02-06T10:55:03.096Z,100087.04
2019-02-06T10:57:32.291Z,100079.84
2019-02-06T11:00:01.463Z,100071.11
2019-02-06T11:02:30.770Z,100062.16
2019-02-06T11:04:59.970Z,100058.50
2019-02-06T11:07:29.520Z,100051.10
2019-02-06T11:09:58.719Z,100048.30
2019-02-06T11:12:27.908Z,100052.37
2019-02-06T11:14:57.198Z,100047.03
2019-02-06T11:17:26.360Z,100035.62
2019-02-06T11:19:55.570Z,100037.53
2019-02-06T11:22:24.868Z,100024.30
2019-02-06T11:24:54.100Z,100025.08
2019-02-06T11:27:23.285Z,100019.98
2019-02-06T11:29:52.681Z,100014.76
2019-02-06T11:32:22.346Z,100012.66
2019-02-06T11:34:51.954Z,100007.64
2019-02-06T11:37:21.560Z,100000.91
2019-02-06T11:39:57.491Z,100002.83
2019-02-06T11:42:22.925Z,100005.04
2019-02-06T11:44:52.143Z,100004.80
2019-02-06T11:47:21.976Z,99993.90
2019-02-06T11:49:54.631Z,99994.30
2019-02-06T11:52:24.289Z,99980.98
2019-02-06T11:54:53.480Z,99982.88
2019-02-06T11:57:24.283Z,99972.44
2019-02-06T11:59:55.772Z,99972.57
2019-02-06T12:02:36.679Z,99968.47
2019-02-06T12:04:57.704Z,99979.19
2019-02-06T12:07:28.345Z,99973.73
2019-02-06T12:10:09.041Z,99977.63
2019-02-06T12:12:29.581Z,99976.84
2019-02-06T12:15:00.843Z,99968.34
2019-02-06T12:17:30.020Z,99960.55
2019-02-06T12:19:59.539Z,99951.67
2019-02-06T12:22:28.718Z,99950.61
2019-02-06T12:24:57.918Z,99945.77
2019-02-06T12:27:27.102Z,99941.60
2019-02-06T12:29:56.310Z,99947.03
2019-02-06T12:32:25.871Z,99938.84
2019-02-06T12:34:55.637Z,99927.33
2019-02-06T12:37:24.823Z,99927.37
2019-02-06T12:39:54.387Z,99927.08
2019-02-06T12:42:24.305Z,99926.39
2019-02-06T12:44:54.302Z,99917.49
2019-02-06T12:47:23.496Z,99914.16
2019-02-06T12:49:53.269Z,99920.59
2019-02-06T12:52:22.642Z,99916.54
2019-02-06T12:54:53.677Z,99912.97
2019-02-06T12:57:22.859Z,99905.83
2019-02-06T12:59:53.151Z,99897.67
2019-02-06T13:02:23.460Z,99894.48
2019-02-06T13:04:52.642Z,99891.96
2019-02-06T13:07:24.111Z,99888.14
2019-02-06T13:09:53.885Z,99889.73
2019-02-06T13:12:23.346Z,99880.57
2019-02-06T13:14:52.874Z,99881.77
2019-02-06T13:17:25.767Z,99888.19
2019-02-06T13:19:59.963Z,99886.00
2019-02-06T13:22:29.926Z,99879.79
2019-02-06T13:24:59.356Z,99884.82
2019-02-06T13:27:28.563Z,99877.98
2019-02-06T13:29:58.295Z,99872.41
2019-02-06T13:32:27.739Z,99871.52
2019-02-06T13:34:56.917Z,99862.86
2019-02-06T13:37:26.509Z,99869.25
2019-02-06T13:39:56.477Z,99859.65
2019-02-06T13:42:25.947Z,99851.90
2019-02-06T13:44:56.170Z,99846.34
2019-02-06T13:47:26.896Z,99850.69
2019-02-06T13:49:56.178Z,99842.20
2019-02-06T13:52:25.677Z,99838.97
2019-02-06T13:54:55.922Z,99835.28
2019-02-06T13:57:33.503Z,99825.67
2019-02-06T13:59:57.235Z,99832.59
2019-02-06T14:02:26.434Z,99819.31
2019-02-06T14:04:56.157Z,99815.20
2019-02-06T14:07:28.439Z,99806.78
2019-02-06T14:09:57.975Z,99812.85
2019-02-06T14:12:27.624Z,99809.34
2019-02-06T14:14:57.090Z,99817.05
2019-02-06T14:17:26.559Z,99807.08
2019-02-06T14:19:57.210Z,99808.41
2019-02-06T14:22:30.006Z,99800.70
2019-02-06T14:25:13.271Z,99797.84
2019-02-06T14:27:58.226Z,99796.91
2019-02-06T14:30:45.716Z,99795.81
2019-02-06T14:33:51.444Z,99782.39
2019-02-06T14:36:41.844Z,99773.27
2019-02-06T14:39:47.802Z,99777.50
2019-02-06T14:43:03.818Z,99777.05
2019-02-06T14:46:04.990Z,99770.89
2019-02-06T14:49:16.478Z,99768.30
2019-02-06T14:52:30.892Z,99762.53
2019-02-06T14:55:28.944Z,99758.34
2019-02-06T14:58:23.170Z,99753.69
2019-02-06T15:01:48.414Z,99744.64
2019-02-06T15:04:55.768Z,99747.54
2019-02-06T15:07:42.997Z,99750.91
2019-02-06T15:10:24.106Z,99740.83
2019-02-06T15:13:19.026Z,99742.37
2019-02-06T15:16:09.167Z,99745.00
2019-02-06T15:18:50.438Z,99730.91
2019-02-06T15:21:51.745Z,99731.23
2019-02-06T15:24:49.957Z,99731.06
2019-02-06T15:27:57.854Z,99717.73
2019-02-06T15:31:29.105Z,99710.98
2019-02-06T15:34:32.380Z,99714.10
2019-02-06T15:37:53.160Z,99707.44
2019-02-06T15:40:55.667Z,99704.75
2019-02-06T15:43:40.336Z,99710.92
2019-02-06T15:46:39.309Z,99716.25
2019-02-06T15:49:31.778Z,99712.47
2019-02-06T15:52:38.557Z,99711.27
2019-02-06T15:55:38.668Z,99710.78
2019-02-06T15:58:52.200Z,99711.46
2019-02-06T16:01:50.323Z,99702.77
2019-02-06T16:05:09.023Z,99708.67
2019-02-06T16:08:16.563Z,99707.68
2019-02-06T16:11:26.721Z,99708.37
2019-02-06T16:14:30.129Z,99707.09
2019-02-06T16:17:47.177Z,99699.96
2019-02-06T16:20:26.409Z,99698.82
2019-02-06T16:23:21.264Z,99696.13
2019-02-06T16:26:52.679Z,99690.47
2019-02-06T16:30:00.290Z,99693.36
2019-02-06T16:32:54.671Z,99690.43
2019-02-06T16:35:54.843Z,99691.10
2019-02-06T16:38:51.985Z,99687.10
2019-02-06T16:42:10.797Z,99693.06
2019-02-06T16:45:17.923Z,99694.49
2019-02-06T16:48:06.159Z,99694.97
2019-02-06T16:50:45.547Z,99696.56
2019-02-06T16:54:02.677Z,99690.00
2019-02-06T16:56:53.447Z,99687.98
2019-02-06T17:00:01.893Z,99689.34
2019-02-06T17:03:01.664Z,99692.67
2019-02-06T17:05:59.326Z,99691.05
2019-02-06T17:09:02.063Z,99688.08
2019-02-06T17:12:10.136Z,99693.63
2019-02-06T17:15:21.031Z,99687.63
2019-02-06T17:18:24.520Z,99694.20
2019-02-06T17:21:34.846Z,99699.53
2019-02-06T17:24:46.923Z,99699.48
2019-02-06T17:27:40.535Z,99696.20
2019-02-06T17:30:37.988Z,99703.52
2019-02-06T17:33:37.177Z,99694.45
2019-02-06T17:36:52.911Z,99696.51
2019-02-06T17:39:56.355Z,99691.02
2019-02-06T17:43:04.484Z,99691.56
2019-02-06T17:46:17.601Z,99687.09
2019-02-06T17:49:32.599Z,99682.46
2019-02-06T17:52:38.951Z,99676.77
2019-02-06T17:55:22.274Z,99679.61
2019-02-06T17:57:54.340Z,99674.78
2019-02-06T18:00:28.539Z,99672.12
2019-02-06T18:02:58.522Z,99673.08
2019-02-06T18:05:34.065Z,99672.91
2019-02-06T18:08:08.032Z,99665.06
2019-02-06T18:10:39.071Z,99667.69
2019-02-06T18:13:08.708Z,99667.31
2019-02-06T18:15:39.352Z,99675.23
2019-02-06T18:18:08.946Z,99676.41
2019-02-06T18:20:38.228Z,99678.42
2019-02-06T18:23:07.554Z,99680.95
2019-02-06T18:25:37.117Z,99682.63
2019-02-06T18:28:07.856Z,99667.38
2019-02-06T18:30:37.689Z,99668.08
2019-02-06T18:33:07.952Z,99662.72
2019-02-06T18:35:40.895Z,99656.31
2019-02-06T18:38:10.503Z,99649.67
2019-02-06T18:40:43.007Z,99648.36
2019-02-06T18:43:13.134Z,99644.69
2019-02-06T18:45:42.601Z,99647.14
2019-02-06T18:48:12.697Z,99647.22
2019-02-06T18:50:43.582Z,99641.63
2019-02-06T18:53:13.034Z,99629.55
2019-02-06T18:55:42.261Z,99635.59
2019-02-06T18:58:11.852Z,99634.53
2019-02-06T19:00:41.440Z,99627.50
2019-02-06T19:03:17.578Z,99631.88
2019-02-06T19:05:47.175Z,99634.85
2019-02-06T19:08:16.947Z,99635.17
2019-02-06T19:10:46.351Z,99632.20
2019-02-06T19:13:16.764Z,99626.19
2019-02-06T19:15:56.231Z,99623.02
2019-02-06T19:18:18.857Z,99617.53
2019-02-06T19:20:48.065Z,99607.55
2019-02-06T19:23:17.522Z,99608.06
2019-02-06T19:25:47.095Z,99617.33
2019-02-06T19:28:17.316Z,99610.34
2019-02-06T19:30:46.818Z,99603.74
2019-02-06T19:33:17.282Z,99597.50
2019-02-06T19:35:47.182Z,99595.87
2019-02-06T19:38:17.058Z,99596.88
2019-02-06T19:40:46.273Z,99606.44
2019-02-06T19:43:19.381Z,99605.77
2019-02-06T19:45:48.570Z,99610.10
2019-02-06T19:48:20.234Z,99612.06
2019-02-06T19:50:55.537Z,99609.38
2019-02-06T19:53:26.119Z,99614.08
2019-02-06T19:55:55.854Z,99605.74
2019-02-06T19:58:30.564Z,99599.91
2019-02-06T20:00:59.779Z,99596.44
2019-02-06T20:03:29.226Z,99588.77
2019-02-06T20:05:59.907Z,99581.50
2019-02-06T20:08:29.076Z,99573.58
2019-02-06T20:10:59.087Z,99575.30
2019-02-06T20:13:29.204Z,99569.30
2019-02-06T20:16:00.205Z,99562.44
2019-02-06T20:18:30.517Z,99555.34
2019-02-06T20:20:59.695Z,99563.61
2019-02-06T20:23:29.944Z,99567.93
2019-02-06T20:25:59.380Z,99559.24
2019-02-06T20:28:28.589Z,99558.95
2019-02-06T20:30:58.477Z,99559.06
2019-02-06T20:33:28.501Z,99558.54
2019-02-06T20:35:57.690Z,99557.42
2019-02-06T20:38:27.447Z,99540.65
2019-02-06T20:40:57.001Z,99538.67
2019-02-06T20:43:27.747Z,99548.32
2019-02-06T20:45:59.007Z,99534.45
2019-02-06T20:48:28.747Z,99536.87
2019-02-06T20:50:58.965Z,99536.84
2019-02-06T20:53:28.308Z,99537.73
2019-02-06T20:55:57.867Z,99546.41
2019-02-06T20:58:28.548Z,99536.87
2019-02-06T21:00:58.151Z,99535.12
2019-02-06T21:03:27.719Z,99531.99
2019-02-06T21:05:57.003Z,99535.74
2019-02-06T21:08:26.543Z,99539.69
2019-02-06T21:10:57.845Z,99536.19
2019-02-06T21:13:33.121Z,99531.13
2019-02-06T21:15:59.030Z,99530.62
2019-02-06T21:18:28.374Z,99528.22
2019-02-06T21:21:02.560Z,99524.50
2019-02-06T21:23:31.902Z,99522.19
2019-02-06T21:26:01.568Z,99522.98
2019-02-06T21:28:31.492Z,99517.52
2019-02-06T21:31:01.916Z,99516.39
2019-02-06T21:33:31.813Z,99517.97
2019-02-06T21:36:01.290Z,99510.86
2019-02-06T21:38:31.293Z,99518.93
2019-02-06T21:41:00.460Z,99511.80
2019-02-06T21:43:30.422Z,99508.22
2019-02-06T21:45:59.977Z,99500.43
2019-02-06T21:48:29.332Z,99490.18
2019-02-06T21:50:58.703Z,99486.30
2019-02-06T21:53:28.686Z,99484.77
2019-02-06T21:55:59.199Z,99481.64
2019-02-06T21:58:28.434Z,99480.75
2019-02-06T22:00:58.767Z,99489.91
2019-02-06T22:03:28.577Z,99482.05
2019-02-06T22:05:57.835Z,99481.57
2019-02-06T22:08:27.104Z,99491.32
2019-02-06T22:10:56.326Z,99482.09
2019-02-06T22:13:25.495Z,99478.28
2019-02-06T22:15:55.027Z,99478.73
2019-02-06T22:18:24.873Z,99475.75
2019-02-06T22:20:54.162Z,99476.05
2019-02-06T22:23:23.864Z,99479.83
2019-02-06T22:25:53.228Z,99471.98
2019-02-06T22:28:23.019Z,99467.03
2019-02-06T22:30:52.528Z,99463.57
2019-02-06T22:33:22.466Z,99459.66
2019-02-06T22:35:52.659Z,99460.21
2019-02-06T22:38:22.905Z,99459.28
2019-02-06T22:40:52.127Z,99458.05
2019-02-06T22:43:21.295Z,99455.52
2019-02-06T22:45:50.818Z,99450.72
2019-02-06T22:48:22.426Z,99454.08
2019-02-06T22:50:51.715Z,99449.41
2019-02-06T22:53:21.068Z,99443.55
2019-02-06T22:55:55.833Z,99440.11
2019-02-06T22:58:25.796Z,99438.27
2019-02-06T23:01:25.540Z,99435.33
2019-02-06T23:03:54.736Z,99426.03
2019-02-06T23:06:24.831Z,99431.34
2019-02-06T23:08:54.284Z,99426.03
2019-02-06T23:11:23.485Z,99421.30
2019-02-06T23:13:52.937Z,99421.06
2019-02-06T23:16:22.412Z,99412.73
2019-02-06T23:18:53.353Z,99409.12
2019-02-06T23:21:22.722Z,99409.44
2019-02-06T23:23:51.887Z,99401.59
2019-02-06T23:26:23.715Z,99397.86
2019-02-06T23:28:53.143Z,99391.34
2019-02-06T23:31:22.360Z,99389.63
2019-02-06T23:33:53.017Z,99391.03
2019-02-06T23:36:22.385Z,99387.44
2019-02-06T23:38:51.574Z,99387.50
2019-02-06T23:41:21.457Z,99384.86
2019-02-06T23:43:50.886Z,99379.92
2019-02-06T23:46:22.445Z,99367.34
2019-02-06T23:48:53.572Z,99371.66
2019-02-06T23:51:24.728Z,99364.09
2019-02-06T23:53:54.201Z,99363.65
2019-02-06T23:56:24.745Z,99367.21
2019-02-06T23:58:54.929Z,99362.41
